createdAt,value
2023-11-04T00:01:01.387Z,99476.79
2023-11-04T00:03:35.515Z,99484.63
2023-11-04T00:06:02.568Z,99491.90
2023-11-04T00:08:29.683Z,99493.13
2023-11-04T00:10:57.253Z,99494.55
2023-11-04T00:13:24.186Z,99488.64
2023-11-04T00:15:51.462Z,99486.87
2023-11-04T00:18:19.112Z,99487.87
2023-11-04T00:20:51.553Z,99486.66
2023-11-04T00:23:19.484Z,99486.80
2023-11-04T00:25:46.437Z,99484.40
2023-11-04T00:28:13.642Z,99473.37
2023-11-04T00:30:40.981Z,99475.12
2023-11-04T00:33:08.383Z,99474.38
2023-11-04T00:35:35.747Z,99466.14
2023-11-04T00:38:02.798Z,99463.53
2023-11-04T00:40:30.192Z,99468.83
2023-11-04T00:42:57.110Z,99458.29
2023-11-04T00:45:24.318Z,99463.81
2023-11-04T00:47:51.524Z,99462.38
2023-11-04T00:50:21.372Z,99457.83
2023-11-04T00:52:49.311Z,99460.16
2023-11-04T00:55:16.374Z,99454.86
2023-11-04T00:57:43.258Z,99456.98
2023-11-04T01:00:11.485Z,99460.81
2023-11-04T01:02:38.700Z,99461.89
2023-11-04T01:05:06.161Z,99452.02
2023-11-04T01:07:33.722Z,99453.95
2023-11-04T01:10:00.709Z,99447.98
2023-11-04T01:12:27.700Z,99448.67
2023-11-04T01:14:54.770Z,99445.50
2023-11-04T01:17:21.703Z,99440.56
2023-11-04T01:19:48.713Z,99443.48
2023-11-04T01:22:16.923Z,99457.64
2023-11-04T01:24:44.249Z,99455.30
2023-11-04T01:27:11.213Z,99452.20
2023-11-04T01:29:38.615Z,99451.52
2023-11-04T01:32:07.156Z,99454.13
2023-11-04T01:34:34.370Z,99458.11
2023-11-04T01:37:01.508Z,99457.56
2023-11-04T01:39:28.518Z,99458.65
2023-11-04T01:41:56.159Z,99454.92
2023-11-04T01:44:23.166Z,99454.33
2023-11-04T01:46:50.811Z,99446.80
2023-11-04T01:49:17.785Z,99437.33
2023-11-04T01:51:45.070Z,99430.70
2023-11-04T01:54:12.296Z,99429.52
2023-11-04T01:56:40.617Z,99418.09
2023-11-04T01:59:10.106Z,99416.58
2023-11-04T02:01:38.133Z,99423.65
2023-11-04T02:04:05.442Z,99422.64
2023-11-04T02:06:32.737Z,99430.92
2023-11-04T02:08:59.778Z,99432.83
2023-11-04T02:11:26.795Z,99440.01
2023-11-04T02:13:53.734Z,99430.25
2023-11-04T02:16:20.965Z,99425.11
2023-11-04T02:18:48.030Z,99411.64
2023-11-04T02:21:15.601Z,99412.30
2023-11-04T02:23:42.439Z,99413.52
2023-11-04T02:26:09.718Z,99418.91
2023-11-04T02:28:36.853Z,99414.58
2023-11-04T02:31:04.141Z,99399.18
2023-11-04T02:33:31.216Z,99414.67
2023-11-04T02:35:58.650Z,99419.35
2023-11-04T02:38:25.554Z,99410.32
2023-11-04T02:40:52.497Z,99409.99
2023-11-04T02:43:19.519Z,99400.98
2023-11-04T02:45:46.495Z,99398.39
2023-11-04T02:48:13.644Z,99390.38
2023-11-04T02:50:40.675Z,99377.66
2023-11-04T02:53:07.738Z,99382.71
2023-11-04T02:55:34.670Z,99370.71
2023-11-04T02:58:01.869Z,99375.55
2023-11-04T03:00:29.234Z,99360.73
2023-11-04T03:02:56.717Z,99364.34
2023-11-04T03:05:28.283Z,99372.20
2023-11-04T03:08:02.177Z,99380.33
2023-11-04T03:10:29.441Z,99367.84
2023-11-04T03:12:56.467Z,99376.55
2023-11-04T03:15:23.398Z,99367.38
2023-11-04T03:17:50.509Z,99367.58
2023-11-04T03:20:17.537Z,99363.55
2023-11-04T03:22:44.571Z,99369.35
2023-11-04T03:25:13.569Z,99375.29
2023-11-04T03:27:40.743Z,99375.02
2023-11-04T03:30:10.461Z,99385.96
2023-11-04T03:32:38.789Z,99381.81
2023-11-04T03:35:06.304Z,99385.36
2023-11-04T03:37:35.600Z,99385.90
2023-11-04T03:40:02.776Z,99401.14
2023-11-04T03:42:29.933Z,99404.08
2023-11-04T03:44:56.956Z,99405.61
2023-11-04T03:47:24.052Z,99404.82
2023-11-04T03:49:51.205Z,99399.08
2023-11-04T03:52:18.115Z,99407.89
2023-11-04T03:54:45.044Z,99410.06
2023-11-04T03:57:11.926Z,99411.77
2023-11-04T03:59:39.401Z,99400.02
2023-11-04T04:02:08.699Z,99395.83
2023-11-04T04:04:35.885Z,99397.31
2023-11-04T04:07:02.859Z,99398.92
2023-11-04T04:09:29.992Z,99402.73
2023-11-04T04:11:58.869Z,99404.23
2023-11-04T04:14:26.028Z,99401.15
2023-11-04T04:16:53.112Z,99407.25
2023-11-04T04:19:20.737Z,99407.05
2023-11-04T04:21:48.034Z,99389.84
2023-11-04T04:24:14.982Z,99398.05
2023-11-04T04:26:41.847Z,99400.13
2023-11-04T04:29:09.245Z,99407.57
2023-11-04T04:31:36.338Z,99405.12
2023-11-04T04:34:03.385Z,99399.98
2023-11-04T04:36:31.552Z,99397.67
2023-11-04T04:38:58.609Z,99394.01
2023-11-04T04:41:27.723Z,99392.33
2023-11-04T04:43:54.949Z,99391.85
2023-11-04T04:46:21.969Z,99382.98
2023-11-04T04:48:49.162Z,99385.90
2023-11-04T04:51:18.000Z,99385.58
2023-11-04T04:53:45.077Z,99373.52
2023-11-04T04:56:12.199Z,99383.83
2023-11-04T04:58:39.221Z,99380.96
2023-11-04T05:01:06.458Z,99397.48
2023-11-04T05:03:33.714Z,99392.67
2023-11-04T05:06:01.195Z,99385.09
2023-11-04T05:08:28.241Z,99382.50
2023-11-04T05:10:55.112Z,99397.84
2023-11-04T05:13:22.068Z,99403.36
2023-11-04T05:15:49.157Z,99404.16
2023-11-04T05:18:16.915Z,99413.71
2023-11-04T05:20:44.157Z,99403.30
2023-11-04T05:23:11.161Z,99404.19
2023-11-04T05:25:38.545Z,99413.08
2023-11-04T05:28:06.090Z,99417.86
2023-11-04T05:30:36.196Z,99423.97
2023-11-04T05:33:04.385Z,99432.20
2023-11-04T05:35:31.439Z,99436.56
2023-11-04T05:37:58.761Z,99442.23
2023-11-04T05:40:25.921Z,99452.59
2023-11-04T05:42:52.906Z,99453.77
2023-11-04T05:45:20.260Z,99444.11
2023-11-04T05:47:48.001Z,99446.11
2023-11-04T05:50:15.091Z,99453.30
2023-11-04T05:52:44.506Z,99457.23
2023-11-04T05:55:12.734Z,99453.78
2023-11-04T05:57:39.930Z,99466.42
2023-11-04T06:00:12.480Z,99457.59
2023-11-04T06:02:40.527Z,99459.55
2023-11-04T06:05:11.337Z,99454.56
2023-11-04T06:07:38.452Z,99453.45
2023-11-04T06:10:09.846Z,99454.61
2023-11-04T06:12:37.239Z,99465.95
2023-11-04T06:15:04.936Z,99459.15
2023-11-04T06:17:32.394Z,99466.71
2023-11-04T06:19:59.603Z,99468.20
2023-11-04T06:22:26.754Z,99474.77
2023-11-04T06:26:01.933Z,99463.63
2023-11-04T06:28:30.054Z,99464.59
2023-11-04T06:30:57.604Z,99473.55
2023-11-04T06:33:24.730Z,99470.36
2023-11-04T06:35:52.013Z,99483.06
2023-11-04T06:38:19.289Z,99483.81
2023-11-04T06:40:46.787Z,99466.87
2023-11-04T06:43:14.060Z,99463.67
2023-11-04T06:45:41.392Z,99455.52
2023-11-04T06:48:08.835Z,99460.42
2023-11-04T06:50:37.744Z,99453.98
2023-11-04T06:53:04.852Z,99453.12
2023-11-04T06:55:34.345Z,99448.02
2023-11-04T06:58:01.609Z,99440.65
2023-11-04T07:00:29.073Z,99448.13
2023-11-04T07:02:56.541Z,99449.92
2023-11-04T07:05:25.027Z,99447.85
2023-11-04T07:07:52.285Z,99441.08
2023-11-04T07:10:19.678Z,99449.34
2023-11-04T07:12:46.802Z,99441.35
2023-11-04T07:15:13.754Z,99451.45
2023-11-04T07:17:40.711Z,99448.98
2023-11-04T07:20:11.222Z,99450.95
2023-11-04T07:22:38.285Z,99448.00
2023-11-04T07:25:05.524Z,99449.48
2023-11-04T07:27:32.695Z,99447.52
2023-11-04T07:29:59.558Z,99442.46
2023-11-04T07:32:26.569Z,99445.77
2023-11-04T07:34:53.535Z,99445.35
2023-11-04T07:37:20.654Z,99434.21
2023-11-04T07:39:48.096Z,99440.27
2023-11-04T07:42:15.335Z,99438.36
2023-11-04T07:44:42.332Z,99435.70
2023-11-04T07:47:09.271Z,99432.19
2023-11-04T07:49:36.595Z,99434.67
2023-11-04T07:52:06.862Z,99433.37
2023-11-04T07:54:33.876Z,99439.00
2023-11-04T07:57:00.801Z,99439.27
2023-11-04T07:59:27.785Z,99433.52
2023-11-04T08:01:54.701Z,99428.30
2023-11-04T08:04:38.671Z,99429.55
2023-11-04T08:07:05.699Z,99430.02
2023-11-04T08:09:32.783Z,99440.30
2023-11-04T08:11:59.785Z,99438.77
2023-11-04T08:14:26.661Z,99432.40
2023-11-04T08:16:54.633Z,99441.88
2023-11-04T08:19:21.615Z,99431.45
2023-11-04T08:21:50.941Z,99428.46
2023-11-04T08:24:17.908Z,99429.08
2023-11-04T08:26:44.917Z,99421.85
2023-11-04T08:29:11.812Z,99414.79
2023-11-04T08:31:38.925Z,99415.30
2023-11-04T08:34:06.136Z,99421.44
2023-11-04T08:36:33.375Z,99415.52
2023-11-04T08:39:00.431Z,99420.02
2023-11-04T08:41:27.359Z,99412.79
2023-11-04T08:43:56.266Z,99402.90
2023-11-04T08:46:23.403Z,99393.94
2023-11-04T08:48:51.450Z,99384.85
2023-11-04T08:51:18.789Z,99378.41
2023-11-04T08:53:45.735Z,99373.27
2023-11-04T08:56:12.788Z,99366.54
2023-11-04T08:58:49.959Z,99368.25
2023-11-04T09:01:19.633Z,99368.98
2023-11-04T09:03:54.939Z,99365.66
2023-11-04T09:06:28.151Z,99364.79
2023-11-04T09:08:55.802Z,99370.71
2023-11-04T09:11:22.708Z,99363.18
2023-11-04T09:13:49.675Z,99372.17
2023-11-04T09:16:16.928Z,99368.40
2023-11-04T09:18:44.876Z,99363.05
2023-11-04T09:21:12.049Z,99362.50
2023-11-04T09:23:40.321Z,99350.66
2023-11-04T09:26:08.079Z,99356.61
2023-11-04T09:28:35.188Z,99361.44
2023-11-04T09:31:02.581Z,99354.85
2023-11-04T09:33:32.335Z,99354.36
2023-11-04T09:36:00.702Z,99346.09
2023-11-04T09:38:27.737Z,99347.19
2023-11-04T09:40:54.721Z,99350.52
2023-11-04T09:43:22.026Z,99356.61
2023-11-04T09:45:49.096Z,99350.92
2023-11-04T09:48:16.139Z,99344.63
2023-11-04T09:50:43.091Z,99346.45
2023-11-04T09:53:22.849Z,99353.90
2023-11-04T09:55:50.929Z,99361.50
2023-11-04T09:58:17.946Z,99346.19
2023-11-04T10:00:45.036Z,99337.56
2023-11-04T10:03:12.029Z,99338.52
2023-11-04T10:05:39.353Z,99336.87
2023-11-04T10:08:06.361Z,99334.61
2023-11-04T10:10:35.668Z,99337.43
2023-11-04T10:13:05.388Z,99337.50
2023-11-04T10:15:32.534Z,99338.17
2023-11-04T10:17:59.474Z,99338.34
2023-11-04T10:20:26.602Z,99336.65
2023-11-04T10:22:54.684Z,99327.48
2023-11-04T10:25:21.995Z,99325.77
2023-11-04T10:27:49.154Z,99321.23
2023-11-04T10:30:16.244Z,99318.68
2023-11-04T10:32:46.639Z,99324.46
2023-11-04T10:35:13.844Z,99320.70
2023-11-04T10:37:41.008Z,99330.84
2023-11-04T10:40:08.744Z,99321.67
2023-11-04T10:42:38.169Z,99324.02
2023-11-04T10:45:17.799Z,99321.89
2023-11-04T10:48:06.082Z,99328.26
2023-11-04T10:50:34.193Z,99328.39
2023-11-04T10:53:39.261Z,99328.34
2023-11-04T10:56:10.331Z,99334.55
2023-11-04T10:59:12.365Z,99329.01
2023-11-04T11:01:39.551Z,99323.23
2023-11-04T11:04:07.393Z,99328.73
2023-11-04T11:06:34.500Z,99321.66
2023-11-04T11:09:04.759Z,99317.30
2023-11-04T11:11:43.362Z,99314.15
2023-11-04T11:14:10.454Z,99309.92
2023-11-04T11:16:37.508Z,99304.55
2023-11-04T11:19:11.335Z,99302.21
2023-11-04T11:21:51.364Z,99301.23
2023-11-04T11:24:22.100Z,99300.26
2023-11-04T11:26:50.102Z,99297.17
2023-11-04T11:29:24.127Z,99296.15
2023-11-04T11:31:54.995Z,99295.90
2023-11-04T11:34:22.058Z,99293.63
2023-11-04T11:36:50.457Z,99290.44
2023-11-04T11:39:17.483Z,99295.08
2023-11-04T11:41:44.807Z,99295.09
2023-11-04T11:44:15.870Z,99288.10
2023-11-04T11:46:44.358Z,99285.68
2023-11-04T11:49:14.391Z,99285.42
2023-11-04T11:51:41.896Z,99279.61
2023-11-04T11:54:11.483Z,99285.02
2023-11-04T11:56:40.764Z,99288.35
2023-11-04T11:59:08.242Z,99283.64
2023-11-04T12:01:35.322Z,99277.60
2023-11-04T12:04:07.554Z,99275.79
2023-11-04T12:06:34.837Z,99282.45
2023-11-04T12:09:02.658Z,99282.27
2023-11-04T12:11:32.270Z,99288.29
2023-11-04T12:14:02.189Z,99290.97
2023-11-04T12:16:30.792Z,99288.36
2023-11-04T12:18:57.986Z,99289.02
2023-11-04T12:21:25.156Z,99282.73
2023-11-04T12:23:52.037Z,99288.58
2023-11-04T12:26:18.978Z,99295.70
2023-11-04T12:28:46.013Z,99292.39
2023-11-04T12:31:16.058Z,99289.84
2023-11-04T12:33:46.715Z,99298.08
2023-11-04T12:36:14.201Z,99296.80
2023-11-04T12:38:44.265Z,99293.70
2023-11-04T12:41:13.303Z,99286.48
2023-11-04T12:43:40.625Z,99280.42
2023-11-04T12:46:09.862Z,99270.86
2023-11-04T12:48:39.729Z,99261.98
2023-11-04T12:51:07.405Z,99257.15
2023-11-04T12:53:35.530Z,99251.77
2023-11-04T12:56:02.647Z,99252.47
2023-11-04T12:58:32.892Z,99254.08
2023-11-04T13:01:01.011Z,99255.52
2023-11-04T13:03:28.529Z,99254.82
2023-11-04T13:05:55.747Z,99253.05
2023-11-04T13:08:22.866Z,99252.96
2023-11-04T13:10:50.113Z,99253.77
2023-11-04T13:13:17.268Z,99254.19
2023-11-04T13:15:44.232Z,99250.64
2023-11-04T13:18:11.649Z,99251.48
2023-11-04T13:20:38.637Z,99249.86
2023-11-04T13:23:06.515Z,99245.48
2023-11-04T13:25:34.472Z,99237.13
2023-11-04T13:28:01.481Z,99230.48
2023-11-04T13:30:28.545Z,99231.45
2023-11-04T13:32:55.436Z,99235.91
2023-11-04T13:35:22.838Z,99229.60
2023-11-04T13:37:49.888Z,99232.21
2023-11-04T13:40:17.101Z,99232.98
2023-11-04T13:42:44.174Z,99228.45
2023-11-04T13:45:12.232Z,99231.82
2023-11-04T13:47:39.214Z,99228.34
2023-11-04T13:50:07.812Z,99229.45
2023-11-04T13:52:35.229Z,99238.89
2023-11-04T13:55:02.459Z,99235.61
2023-11-04T13:57:29.837Z,99238.38
2023-11-04T13:59:56.920Z,99238.83
2023-11-04T14:02:28.059Z,99238.23
2023-11-04T14:04:56.736Z,99234.80
2023-11-04T14:07:24.030Z,99238.71
2023-11-04T14:09:51.174Z,99241.77
2023-11-04T14:12:19.246Z,99248.11
2023-11-04T14:14:46.867Z,99247.67
2023-11-04T14:17:13.874Z,99249.21
2023-11-04T14:19:40.960Z,99251.20
2023-11-04T14:22:08.184Z,99252.79
2023-11-04T14:24:35.529Z,99250.84
2023-11-04T14:27:02.505Z,99248.48
2023-11-04T14:29:29.701Z,99250.70
2023-11-04T14:31:56.676Z,99245.05
2023-11-04T14:34:23.760Z,99249.21
2023-11-04T14:36:50.809Z,99253.89
2023-11-04T14:39:20.143Z,99254.80
2023-11-04T14:41:47.132Z,99254.95
2023-11-04T14:44:14.176Z,99254.02
2023-11-04T14:46:41.225Z,99254.23
2023-11-04T14:49:08.354Z,99246.16
2023-11-04T14:51:35.333Z,99249.09
2023-11-04T14:54:02.517Z,99236.23
2023-11-04T14:56:29.784Z,99242.48
2023-11-04T14:58:56.732Z,99241.95
2023-11-04T15:01:23.717Z,99235.77
2023-11-04T15:03:50.698Z,99235.36
2023-11-04T15:06:17.656Z,99235.18
2023-11-04T15:08:45.239Z,99238.06
2023-11-04T15:11:12.281Z,99240.88
2023-11-04T15:13:39.283Z,99233.79
2023-11-04T15:16:07.186Z,99231.12
2023-11-04T15:18:34.288Z,99224.42
2023-11-04T15:21:01.559Z,99226.55
2023-11-04T15:23:29.264Z,99228.00
2023-11-04T15:25:56.224Z,99233.29
2023-11-04T15:28:24.578Z,99228.83
2023-11-04T15:30:51.612Z,99227.20
2023-11-04T15:33:18.682Z,99229.94
2023-11-04T15:35:45.707Z,99225.09
2023-11-04T15:38:12.669Z,99220.30
2023-11-04T15:40:40.212Z,99214.44
2023-11-04T15:43:07.711Z,99214.11
2023-11-04T15:45:35.647Z,99208.70
2023-11-04T15:48:02.805Z,99217.01
2023-11-04T15:50:31.120Z,99212.85
2023-11-04T15:52:58.090Z,99220.73
2023-11-04T15:55:25.095Z,99209.77
2023-11-04T15:57:52.373Z,99210.34
2023-11-04T16:00:19.717Z,99212.91
2023-11-04T16:02:48.380Z,99199.15
2023-11-04T16:05:15.641Z,99204.46
2023-11-04T16:07:43.287Z,99208.98
2023-11-04T16:10:12.581Z,99218.98
2023-11-04T16:12:40.463Z,99215.80
2023-11-04T16:15:09.142Z,99209.30
2023-11-04T16:17:36.140Z,99213.60
2023-11-04T16:20:04.117Z,99211.02
2023-11-04T16:22:32.233Z,99207.19
2023-11-04T16:24:59.565Z,99213.15
2023-11-04T16:27:26.499Z,99208.52
2023-11-04T16:29:53.795Z,99206.85
2023-11-04T16:32:22.424Z,99202.66
2023-11-04T16:34:51.952Z,99205.07
2023-11-04T16:37:19.250Z,99193.52
2023-11-04T16:39:46.286Z,99192.98
2023-11-04T16:42:13.220Z,99197.36
2023-11-04T16:44:40.194Z,99188.17
2023-11-04T16:47:07.306Z,99195.80
2023-11-04T16:49:37.035Z,99187.81
2023-11-04T16:52:05.343Z,99190.93
2023-11-04T16:54:32.556Z,99193.45
2023-11-04T16:56:59.682Z,99193.40
2023-11-04T16:59:26.635Z,99187.18
2023-11-04T17:01:53.778Z,99185.59
2023-11-04T17:04:21.108Z,99183.93
2023-11-04T17:06:48.675Z,99188.48
2023-11-04T17:09:16.128Z,99174.86
2023-11-04T17:11:43.102Z,99169.69
2023-11-04T17:14:10.048Z,99162.85
2023-11-04T17:16:37.023Z,99156.55
2023-11-04T17:19:04.263Z,99151.70
2023-11-04T17:21:31.738Z,99152.95
2023-11-04T17:23:58.677Z,99149.83
2023-11-04T17:26:25.711Z,99145.83
2023-11-04T17:28:52.818Z,99139.42
2023-11-04T17:31:20.300Z,99136.83
2023-11-04T17:33:47.411Z,99128.30
2023-11-04T17:36:15.843Z,99131.34
2023-11-04T17:38:42.856Z,99123.07
2023-11-04T17:41:09.846Z,99115.55
2023-11-04T17:43:36.908Z,99119.58
2023-11-04T17:46:04.313Z,99114.19
2023-11-04T17:48:31.759Z,99092.80
2023-11-04T17:50:59.006Z,99101.86
2023-11-04T17:53:26.264Z,99107.20
2023-11-04T17:55:53.378Z,99113.94
2023-11-04T17:58:20.466Z,99122.59
2023-11-04T18:00:47.604Z,99114.21
2023-11-04T18:03:14.626Z,99122.77
2023-11-04T18:05:41.649Z,99117.59
2023-11-04T18:08:11.668Z,99114.80
2023-11-04T18:10:39.290Z,99113.83
2023-11-04T18:13:06.371Z,99115.66
2023-11-04T18:15:33.863Z,99120.58
2023-11-04T18:18:01.125Z,99123.44
2023-11-04T18:20:28.230Z,99119.19
2023-11-04T18:22:55.266Z,99124.41
2023-11-04T18:25:22.375Z,99115.95
2023-11-04T18:27:58.730Z,99116.96
2023-11-04T18:30:29.244Z,99113.77
2023-11-04T18:32:57.330Z,99117.29
2023-11-04T18:35:24.346Z,99112.23
2023-11-04T18:37:51.405Z,99105.52
2023-11-04T18:42:56.392Z,99090.70
2023-11-04T18:45:23.847Z,99094.86
2023-11-04T18:47:51.468Z,99091.98
2023-11-04T18:50:18.915Z,99079.34
2023-11-04T18:52:46.148Z,99073.86
2023-11-04T18:55:14.008Z,99075.80
2023-11-04T18:57:41.356Z,99077.46
2023-11-04T19:00:08.958Z,99073.48
2023-11-04T19:02:36.644Z,99072.95
2023-11-04T19:05:05.657Z,99064.72
2023-11-04T19:07:32.918Z,99070.45
2023-11-04T19:10:01.817Z,99072.91
2023-11-04T19:12:29.098Z,99071.09
2023-11-04T19:14:56.301Z,99058.66
2023-11-04T19:17:23.713Z,99057.30
2023-11-04T19:19:51.216Z,99043.11
2023-11-04T19:22:18.275Z,99043.60
2023-11-04T19:24:45.170Z,99051.00
2023-11-04T19:27:12.214Z,99053.04
2023-11-04T19:29:39.791Z,99054.73
2023-11-04T19:32:06.960Z,99052.06
2023-11-04T19:34:33.976Z,99045.77
2023-11-04T19:37:00.894Z,99050.75
2023-11-04T19:39:27.822Z,99036.85
2023-11-04T19:41:54.856Z,99045.84
2023-11-04T19:44:21.893Z,99048.10
2023-11-04T19:46:48.758Z,99059.80
2023-11-04T19:49:16.017Z,99075.36
2023-11-04T19:51:43.255Z,99080.35
2023-11-04T19:54:10.153Z,99080.40
2023-11-04T19:56:37.968Z,99075.83
2023-11-04T19:59:05.046Z,99077.91
2023-11-04T20:01:32.283Z,99071.08
2023-11-04T20:04:01.414Z,99067.52
2023-11-04T20:06:28.435Z,99072.50
2023-11-04T20:08:55.429Z,99064.80
2023-11-04T20:11:22.979Z,99060.88
2023-11-04T20:13:50.817Z,99053.45
2023-11-04T20:16:18.177Z,99056.84
2023-11-04T20:18:45.401Z,99046.98
2023-11-04T20:21:12.448Z,99040.25
2023-11-04T20:23:39.655Z,99031.60
2023-11-04T20:26:07.039Z,99046.33
2023-11-04T20:28:33.981Z,99039.43
2023-11-04T20:31:01.115Z,99030.11
2023-11-04T20:33:28.728Z,99018.54
2023-11-04T20:35:56.275Z,99009.58
2023-11-04T20:38:23.283Z,99008.67
2023-11-04T20:40:50.387Z,99004.05
2023-11-04T20:43:17.275Z,99005.58
2023-11-04T20:45:44.191Z,99005.96
2023-11-04T20:48:11.202Z,99007.57
2023-11-04T20:50:39.260Z,99009.13
2023-11-04T20:53:06.247Z,99013.34
2023-11-04T20:55:33.204Z,99017.59
2023-11-04T20:58:00.199Z,99020.03
2023-11-04T21:00:27.470Z,99010.80
2023-11-04T21:02:54.768Z,99022.86
2023-11-04T21:05:24.048Z,99010.04
2023-11-04T21:07:51.363Z,99023.23
2023-11-04T21:10:18.629Z,99025.75
2023-11-04T21:12:45.977Z,99024.08
2023-11-04T21:15:13.989Z,99027.98
2023-11-04T21:17:41.099Z,99031.80
2023-11-04T21:20:09.549Z,99033.44
2023-11-04T21:22:40.249Z,99028.67
2023-11-04T21:25:10.302Z,99025.30
2023-11-04T21:27:40.458Z,99004.95
2023-11-04T21:30:08.334Z,99007.11
2023-11-04T21:32:35.626Z,99000.18
2023-11-04T21:35:02.964Z,98991.58
2023-11-04T21:37:30.055Z,98983.42
2023-11-04T21:39:57.015Z,98971.81
2023-11-04T21:42:23.934Z,98948.45
2023-11-04T21:44:50.819Z,98930.83
2023-11-04T21:47:17.922Z,98923.71
2023-11-04T21:49:44.838Z,98903.27
2023-11-04T21:52:11.880Z,98897.80
2023-11-04T21:54:38.909Z,98887.69
2023-11-04T21:57:05.996Z,98887.43
2023-11-04T21:59:34.025Z,98890.70
2023-11-04T22:02:01.056Z,98904.88
2023-11-04T22:04:28.056Z,98936.58
2023-11-04T22:06:56.545Z,98947.79
2023-11-04T22:09:23.672Z,98954.95
2023-11-04T22:11:50.782Z,98948.34
2023-11-04T22:14:17.744Z,98956.08
2023-11-04T22:16:44.746Z,98949.04
2023-11-04T22:19:11.921Z,98931.09
2023-11-04T22:21:39.108Z,98935.33
2023-11-04T22:24:06.249Z,98942.33
2023-11-04T22:26:33.441Z,98935.34
2023-11-04T22:29:00.398Z,98919.67
2023-11-04T22:31:27.352Z,98903.52
2023-11-04T22:33:54.524Z,98919.25
2023-11-04T22:36:22.017Z,98914.20
2023-11-04T22:38:49.060Z,98912.54
2023-11-04T22:41:16.230Z,98898.26
2023-11-04T22:43:43.111Z,98884.79
2023-11-04T22:46:10.210Z,98883.45
2023-11-04T22:48:37.290Z,98876.73
2023-11-04T22:51:04.420Z,98869.08
2023-11-04T22:53:31.373Z,98870.39
2023-11-04T22:55:58.311Z,98846.83
2023-11-04T22:58:25.206Z,98837.38
2023-11-04T23:00:53.162Z,98817.97
2023-11-04T23:03:20.352Z,98818.40
2023-11-04T23:05:47.408Z,98811.68
2023-11-04T23:08:16.494Z,98803.40
2023-11-04T23:10:43.641Z,98791.95
2023-11-04T23:13:10.797Z,98784.45
2023-11-04T23:15:37.873Z,98775.65
2023-11-04T23:18:04.910Z,98764.02
2023-11-04T23:20:32.005Z,98779.29
2023-11-04T23:22:59.022Z,98786.40
2023-11-04T23:25:26.187Z,98782.34
2023-11-04T23:27:53.197Z,98803.09
2023-11-04T23:30:20.993Z,98814.31
2023-11-04T23:32:48.161Z,98823.71
2023-11-04T23:35:15.589Z,98822.62
2023-11-04T23:37:42.666Z,98827.89
2023-11-04T23:40:10.527Z,98832.94
2023-11-04T23:42:37.597Z,98832.34
2023-11-04T23:45:05.640Z,98834.80
2023-11-04T23:47:32.979Z,98848.25
2023-11-04T23:50:00.018Z,98861.75
2023-11-04T23:52:26.929Z,98880.74
2023-11-04T23:54:53.870Z,98885.05
2023-11-04T23:57:20.765Z,98874.23
2023-11-04T23:59:47.859Z,98888.25
